Terminal Aerodrome Forecast
Issued by NWS Jackson, MS

Home | Current Version | Previous Version | Text Only | Print | Product List | Glossary On
Versions: 1 2 3 4 5 6 7 8 9 10 11 12 13 14
387
FTUS44 KJAN 281747
TAFMEI
TAF
KMEI 281747Z 2818/2918 26008KT P6SM SCT040
     FM282100 20007KT P6SM VCTS SCT035CB BKN050
      TEMPO 2823/2901 34010G30KT 4SM TSRA OVC035CB
     FM290200 21004KT P6SM SCT040 BKN120
     FM290900 20005KT P6SM VCTS OVC040CB=

USA.gov is the U.S. government's official web portal to all federal, state and local government web resources and services.